Time;durP1;ratioP1;P1;durP2;ratioP2;P2;SDS_P1;SDS_P2;PMS_P1;PMS_P2;Temp;Humidity;BMP_temperature;BMP_pressure;BME280_temperature;BME280_humidity;BME280_pressure;Samples;Min_cycle;Max_cycle;Signal;HPM_P1;HPM_P2
2022/03/11 00:02:23;;;;;;;1.65;0.85;;;20.70;40.40;;;;;;5008881;28;20104;-68
2022/03/11 00:04:49;;;;;;;1.33;0.80;;;20.70;40.40;;;;;;5010112;28;20140;-66
2022/03/11 00:07:15;;;;;;;1.27;0.85;;;20.70;40.40;;;;;;5008152;28;20072;-68
2022/03/11 00:09:41;;;;;;;1.65;0.90;;;20.70;40.40;;;;;;5008736;28;20147;-68
2022/03/11 00:12:08;;;;;;;3.17;0.93;;;20.70;40.50;;;;;;5007479;28;20029;-66
2022/03/11 00:14:35;;;;;;;1.52;0.80;;;20.70;40.40;;;;;;5008968;28;20431;-67
2022/03/11 00:17:02;;;;;;;1.23;0.70;;;20.70;40.40;;;;;;5004493;28;20474;-68
2022/03/11 00:19:28;;;;;;;1.10;0.70;;;20.70;40.40;;;;;;5009434;28;20129;-68
2022/03/11 00:21:55;;;;;;;0.70;0.70;;;20.70;40.40;;;;;;5008513;28;20110;-68
2022/03/11 00:24:21;;;;;;;1.85;0.90;;;20.70;40.40;;;;;;5007575;28;20200;-66
2022/03/11 00:26:46;;;;;;;1.10;0.73;;;20.70;40.40;;;;;;5007490;28;20237;-68
2022/03/11 00:29:12;;;;;;;1.00;0.80;;;20.70;40.50;;;;;;5010105;28;20021;-66
2022/03/11 00:31:37;;;;;;;1.10;0.80;;;20.70;40.40;;;;;;5008483;28;20564;-68
2022/03/11 00:34:03;;;;;;;1.65;0.90;;;20.70;40.40;;;;;;5005563;28;20038;-69
2022/03/11 00:36:28;;;;;;;1.55;0.95;;;20.60;40.40;;;;;;5008557;28;20132;-68
2022/03/11 00:38:54;;;;;;;1.00;0.70;;;20.70;40.40;;;;;;5007858;28;20526;-66
2022/03/11 00:41:20;;;;;;;1.30;0.80;;;20.60;40.40;;;;;;5006531;28;20036;-67
2022/03/11 00:43:45;;;;;;;2.08;0.88;;;20.60;40.40;;;;;;5009795;28;20033;-66
2022/03/11 00:46:11;;;;;;;1.05;0.80;;;20.60;40.90;;;;;;5008353;28;20040;-67
2022/03/11 00:48:37;;;;;;;1.40;0.85;;;20.60;40.40;;;;;;5009598;28;20041;-68
2022/03/11 00:51:03;;;;;;;1.08;0.80;;;20.60;40.40;;;;;;5006088;28;20030;-67
2022/03/11 00:53:28;;;;;;;1.23;0.90;;;20.60;40.40;;;;;;5005354;28;20034;-67
2022/03/11 00:55:55;;;;;;;1.23;0.80;;;20.60;40.40;;;;;;5005542;28;20032;-68
2022/03/11 00:58:21;;;;;;;1.65;1.00;;;20.60;40.40;;;;;;5008529;28;20029;-66
2022/03/11 01:00:47;;;;;;;1.00;0.80;;;20.60;40.40;;;;;;5008227;28;20058;-66
2022/03/11 01:03:12;;;;;;;1.58;1.00;;;20.60;40.40;;;;;;5007145;28;20643;-67
2022/03/11 01:05:38;;;;;;;1.25;0.90;;;20.60;40.40;;;;;;5007544;28;20030;-66
2022/03/11 01:08:04;;;;;;;1.55;0.90;;;20.60;40.40;;;;;;5005482;28;20159;-66
2022/03/11 01:10:29;;;;;;;1.05;0.82;;;20.60;40.40;;;;;;5006228;28;20046;-68
2022/03/11 01:12:55;;;;;;;1.85;0.90;;;20.60;40.40;;;;;;5007282;28;20037;-66
2022/03/11 01:15:21;;;;;;;1.38;0.90;;;20.50;40.30;;;;;;5008940;28;20026;-66
2022/03/11 01:17:47;;;;;;;1.45;0.90;;;20.50;40.40;;;;;;5006544;28;20137;-68
2022/03/11 01:20:13;;;;;;;1.50;0.80;;;20.50;40.40;;;;;;5007272;28;20033;-69
2022/03/11 01:22:39;;;;;;;1.45;0.90;;;20.50;40.40;;;;;;5007566;28;20038;-66
2022/03/11 01:25:06;;;;;;;1.35;0.93;;;20.50;40.40;;;;;;5006325;28;20087;-66
2022/03/11 01:27:32;;;;;;;1.52;0.90;;;20.50;40.40;;;;;;5006638;28;20474;-68
2022/03/11 01:29:57;;;;;;;1.42;1.00;;;20.50;40.40;;;;;;5008188;28;20113;-66
2022/03/11 01:32:23;;;;;;;1.02;0.80;;;20.50;40.90;;;;;;5007261;28;20394;-66
2022/03/11 01:34:49;;;;;;;1.40;1.00;;;20.50;40.40;;;;;;5007765;28;20030;-66
2022/03/11 01:37:15;;;;;;;1.60;0.90;;;20.50;40.40;;;;;;5006469;28;20030;-68
2022/03/11 01:39:40;;;;;;;1.08;0.88;;;20.40;40.30;;;;;;5005049;28;20044;-68
2022/03/11 01:42:07;;;;;;;1.33;0.93;;;20.50;40.40;;;;;;5004808;28;20107;-66
2022/03/11 01:44:33;;;;;;;1.23;0.95;;;20.40;40.40;;;;;;5006738;28;20390;-68
2022/03/11 01:46:59;;;;;;;1.38;0.90;;;20.50;40.40;;;;;;5006549;28;20040;-66
2022/03/11 01:49:25;;;;;;;1.50;1.00;;;20.40;40.30;;;;;;5008201;28;20022;-68
2022/03/11 01:51:52;;;;;;;1.60;1.00;;;20.40;40.40;;;;;;5004313;28;20052;-68
2022/03/11 01:54:18;;;;;;;1.65;1.10;;;20.40;40.40;;;;;;5007033;28;20030;-68
2022/03/11 01:56:44;;;;;;;1.50;1.00;;;20.40;40.40;;;;;;5004918;28;20088;-67
2022/03/11 01:59:11;;;;;;;1.45;1.02;;;20.40;40.40;;;;;;5004613;28;20044;-68
2022/03/11 02:01:37;;;;;;;1.40;0.95;;;20.40;40.40;;;;;;5006129;28;20038;-66
2022/03/11 02:04:03;;;;;;;1.30;0.95;;;20.40;40.40;;;;;;5005618;28;20057;-67
2022/03/11 02:06:30;;;;;;;1.60;1.00;;;20.40;40.40;;;;;;5007853;28;20779;-67
2022/03/11 02:08:56;;;;;;;1.67;1.00;;;20.40;40.40;;;;;;5004690;28;20026;-66
2022/03/11 02:11:22;;;;;;;1.10;0.80;;;20.40;40.40;;;;;;5004719;28;20543;-66
2022/03/11 02:13:54;;;;;;;1.90;1.10;;;20.40;40.40;;;;;;5007237;28;20029;-67
2022/03/11 02:16:28;;;;;;;1.33;0.93;;;20.40;40.40;;;;;;5004796;28;21560;-68
2022/03/11 02:18:54;;;;;;;1.98;1.10;;;20.40;40.40;;;;;;5006553;28;20056;-66
2022/03/11 02:21:21;;;;;;;1.73;1.08;;;20.30;40.30;;;;;;5002608;28;20030;-67
2022/03/11 02:23:52;;;;;;;1.98;1.10;;;20.30;40.40;;;;;;5003563;28;20038;-66
2022/03/11 02:26:20;;;;;;;1.63;1.17;;;20.30;40.40;;;;;;5002944;28;20080;-68
2022/03/11 02:28:47;;;;;;;1.48;1.00;;;20.30;40.40;;;;;;5005927;28;20136;-66
2022/03/11 02:31:13;;;;;;;1.63;1.08;;;20.30;40.40;;;;;;5006017;28;20116;-68
2022/03/11 02:33:39;;;;;;;1.58;1.10;;;20.30;40.40;;;;;;5005792;28;20156;-68
2022/03/11 02:36:06;;;;;;;1.45;1.00;;;20.40;40.50;;;;;;5005195;28;20123;-67
2022/03/11 02:38:32;;;;;;;1.40;1.00;;;20.40;40.50;;;;;;5004766;28;20136;-67
2022/03/11 02:40:57;;;;;;;1.85;1.10;;;20.30;40.40;;;;;;5004105;28;20046;-66
2022/03/11 02:43:24;;;;;;;1.70;1.13;;;20.30;40.40;;;;;;5006735;28;20034;-68
2022/03/11 02:45:50;;;;;;;1.60;1.05;;;20.30;40.90;;;;;;5005354;28;20557;-67
2022/03/11 02:48:16;;;;;;;1.60;0.90;;;20.30;40.40;;;;;;5005087;28;20034;-68
2022/03/11 02:50:42;;;;;;;1.50;1.08;;;20.30;40.40;;;;;;5003499;28;20029;-67
2022/03/11 02:53:08;;;;;;;1.42;1.10;;;20.30;40.40;;;;;;5005080;28;20138;-66
2022/03/11 02:55:34;;;;;;;1.55;1.08;;;20.30;40.40;;;;;;5003968;28;20112;-66
2022/03/11 02:58:00;;;;;;;1.67;1.13;;;20.30;40.40;;;;;;5004922;28;20030;-66
2022/03/11 03:00:25;;;;;;;1.27;1.00;;;20.30;40.40;;;;;;5004356;28;20034;-66
2022/03/11 03:02:52;;;;;;;1.98;1.20;;;20.30;40.40;;;;;;5005647;28;20041;-66
2022/03/11 03:05:17;;;;;;;1.70;1.20;;;20.30;40.40;;;;;;5007229;28;20544;-66
2022/03/11 03:07:43;;;;;;;1.88;1.02;;;20.30;40.40;;;;;;5004063;28;20026;-66
2022/03/11 03:10:10;;;;;;;1.75;1.15;;;20.30;40.40;;;;;;5003591;28;20194;-67
2022/03/11 03:12:38;;;;;;;1.45;1.02;;;20.30;40.40;;;;;;5002561;28;20441;-67
2022/03/11 03:15:08;;;;;;;1.25;0.90;;;20.30;40.40;;;;;;5006776;28;20038;-66
2022/03/11 03:17:34;;;;;;;1.45;1.08;;;20.20;40.40;;;;;;5004073;28;20418;-67
2022/03/11 03:20:00;;;;;;;1.30;0.90;;;20.30;40.40;;;;;;5005566;28;20034;-67
2022/03/11 03:22:26;;;;;;;1.50;1.10;;;20.20;40.40;;;;;;5019515;28;20030;-68
2022/03/11 03:24:51;;;;;;;1.42;1.00;;;20.20;40.40;;;;;;5004163;28;20084;-67
2022/03/11 03:27:17;;;;;;;1.60;1.00;;;20.20;40.40;;;;;;5003342;28;20121;-66
2022/03/11 03:29:43;;;;;;;1.65;1.10;;;20.20;40.40;;;;;;5004078;28;20036;-65
2022/03/11 03:32:09;;;;;;;1.63;1.10;;;20.20;40.40;;;;;;5004229;28;20077;-66
2022/03/11 03:34:37;;;;;;;1.90;1.10;;;20.20;40.50;;;;;;5005138;28;20433;-67
2022/03/11 03:37:11;;;;;;;1.42;1.10;;;20.20;40.50;;;;;;5003086;28;20152;-66
2022/03/11 03:39:38;;;;;;;1.40;1.00;;;20.20;40.50;;;;;;5002871;28;20041;-68
2022/03/11 03:42:04;;;;;;;1.42;1.10;;;20.20;40.50;;;;;;5002612;28;20042;-66
2022/03/11 03:44:31;;;;;;;1.45;1.00;;;20.20;40.40;;;;;;5004751;28;20117;-68
2022/03/11 03:46:56;;;;;;;1.75;1.10;;;20.10;40.40;;;;;;5005592;28;20041;-65
2022/03/11 03:49:22;;;;;;;1.38;1.00;;;20.10;40.30;;;;;;5005439;28;20443;-67
2022/03/11 03:51:48;;;;;;;1.70;1.02;;;20.10;40.40;;;;;;5003937;28;20034;-67
2022/03/11 03:54:14;;;;;;;1.35;1.00;;;20.10;40.40;;;;;;5003247;28;20061;-67
2022/03/11 03:56:42;;;;;;;1.85;1.20;;;20.10;40.40;;;;;;5003814;28;20165;-68
2022/03/11 03:59:09;;;;;;;1.30;1.08;;;20.20;40.40;;;;;;5004738;28;20037;-66
2022/03/11 04:01:36;;;;;;;1.60;1.10;;;20.10;40.40;;;;;;5003984;28;20112;-68
2022/03/11 04:04:03;;;;;;;1.48;1.00;;;20.10;40.40;;;;;;5006071;28;20053;-66
2022/03/11 04:06:32;;;;;;;1.50;1.10;;;20.10;40.40;;;;;;5004129;28;20113;-66
2022/03/11 04:08:58;;;;;;;;;;;20.10;40.30;;;;;;5004057;28;20030;-66
2022/03/11 04:11:26;;;;;;;1.33;1.08;;;20.10;40.30;;;;;;5002781;28;19913;-66
2022/03/11 04:13:52;;;;;;;1.27;0.95;;;20.10;40.30;;;;;;5000468;28;20034;-67
2022/03/11 04:16:18;;;;;;;1.58;1.00;;;20.10;40.40;;;;;;5001737;28;20438;-68
2022/03/11 04:18:45;;;;;;;1.50;1.02;;;20.10;40.30;;;;;;5005873;28;20073;-66
2022/03/11 04:21:11;;;;;;;1.45;1.05;;;20.10;40.40;;;;;;5003113;28;20525;-66
2022/03/11 04:23:37;;;;;;;1.50;1.10;;;20.10;40.30;;;;;;5002509;28;20167;-65
2022/03/11 04:26:02;;;;;;;2.20;1.05;;;20.10;40.40;;;;;;4999098;28;20620;-69
2022/03/11 04:28:28;;;;;;;1.38;1.00;;;20.10;40.40;;;;;;5003041;28;20033;-67
2022/03/11 04:30:54;;;;;;;1.55;0.90;;;20.10;40.40;;;;;;5004086;28;20049;-67
2022/03/11 04:33:21;;;;;;;1.88;1.10;;;20.10;40.40;;;;;;5005027;28;20030;-67
2022/03/11 04:35:47;;;;;;;2.05;1.15;;;20.10;40.40;;;;;;5003838;28;20022;-66
2022/03/11 04:38:13;;;;;;;2.47;1.42;;;20.10;40.40;;;;;;5000972;28;20127;-68
2022/03/11 04:40:39;;;;;;;2.03;1.20;;;20.10;40.40;;;;;;5004610;28;20026;-67
2022/03/11 04:43:04;;;;;;;2.63;1.35;;;20.10;40.40;;;;;;5004815;28;20129;-68
2022/03/11 04:45:30;;;;;;;2.30;1.30;;;20.10;40.30;;;;;;5006996;28;20045;-67
2022/03/11 04:47:56;;;;;;;1.75;1.10;;;20.10;40.30;;;;;;5006900;28;20029;-67
2022/03/11 04:50:22;;;;;;;2.08;1.30;;;20.10;40.20;;;;;;5006599;28;20087;-68
2022/03/11 04:52:48;;;;;;;1.85;1.10;;;20.10;40.20;;;;;;5005535;28;20470;-68
2022/03/11 04:55:15;;;;;;;1.77;1.17;;;20.10;40.20;;;;;;5006492;28;20087;-68
2022/03/11 04:57:42;;;;;;;2.45;1.00;;;20.10;40.40;;;;;;5004443;28;20030;-68
2022/03/11 05:00:08;;;;;;;2.45;1.30;;;20.10;40.30;;;;;;5007823;28;20447;-66
2022/03/11 05:02:35;;;;;;;2.08;1.17;;;20.10;40.40;;;;;;5006227;28;20038;-68
2022/03/11 05:05:05;;;;;;;2.20;1.35;;;20.10;40.30;;;;;;5008156;28;20595;-67
2022/03/11 05:07:31;;;;;;;2.33;1.23;;;20.10;40.30;;;;;;5004047;28;20022;-66
2022/03/11 05:09:57;;;;;;;2.90;1.40;;;20.10;40.30;;;;;;5007086;28;20045;-67
2022/03/11 05:12:22;;;;;;;2.22;1.23;;;20.10;40.40;;;;;;5007564;28;20021;-66
2022/03/11 05:14:52;;;;;;;2.00;1.20;;;20.10;40.30;;;;;;5007632;28;20199;-68
2022/03/11 05:17:18;;;;;;;2.42;1.40;;;20.10;40.50;;;;;;5007164;28;20041;-67
2022/03/11 05:19:44;;;;;;;2.88;1.50;;;20.10;40.40;;;;;;5008808;28;20034;-66
2022/03/11 05:22:11;;;;;;;2.95;1.80;;;20.10;40.50;;;;;;5005841;28;20538;-68
2022/03/11 05:24:37;;;;;;;2.60;1.30;;;20.00;40.50;;;;;;5005237;28;20053;-67
2022/03/11 05:27:03;;;;;;;2.78;1.50;;;20.10;40.50;;;;;;5006537;28;20072;-67
2022/03/11 05:29:34;;;;;;;2.63;1.42;;;20.00;40.40;;;;;;5005044;28;20106;-66
2022/03/11 05:31:59;;;;;;;2.97;1.60;;;20.00;40.50;;;;;;5007184;28;20038;-67
2022/03/11 05:34:25;;;;;;;3.47;1.50;;;20.00;40.40;;;;;;5006804;28;20030;-69
2022/03/11 05:36:51;;;;;;;2.90;1.30;;;20.00;40.40;;;;;;5006463;28;20317;-66
2022/03/11 05:39:17;;;;;;;3.92;1.60;;;20.00;40.40;;;;;;5003615;28;20030;-66
2022/03/11 05:41:42;;;;;;;2.80;1.52;;;20.00;40.50;;;;;;5003391;28;20100;-66
2022/03/11 05:44:08;;;;;;;3.85;1.63;;;20.00;40.50;;;;;;5004254;28;20516;-65
2022/03/11 05:46:34;;;;;;;2.47;1.40;;;20.00;40.50;;;;;;5006235;28;20041;-67
2022/03/11 05:48:59;;;;;;;3.83;1.70;;;20.00;40.60;;;;;;5005405;28;20030;-68
2022/03/11 05:51:25;;;;;;;4.53;1.60;;;20.00;40.60;;;;;;5007045;28;20372;-67
2022/03/11 05:53:51;;;;;;;2.80;1.35;;;20.00;40.50;;;;;;5005930;28;20026;-64
2022/03/11 05:56:16;;;;;;;3.20;1.52;;;20.00;40.60;;;;;;5004119;28;20118;-64
2022/03/11 05:58:42;;;;;;;2.78;1.50;;;20.00;40.60;;;;;;5005407;28;20029;-66
2022/03/11 06:01:08;;;;;;;3.58;1.83;;;20.00;40.50;;;;;;5005793;28;20045;-67
2022/03/11 06:03:33;;;;;;;3.08;1.50;;;20.00;40.60;;;;;;5006003;28;20046;-66
2022/03/11 06:05:59;;;;;;;3.30;1.70;;;20.00;40.70;;;;;;5006641;28;20083;-67
2022/03/11 06:08:25;;;;;;;4.22;1.63;;;20.00;40.60;;;;;;5004463;28;20037;-67
2022/03/11 06:10:51;;;;;;;2.67;1.58;;;20.00;40.70;;;;;;4997670;28;20056;-68
2022/03/11 06:13:17;;;;;;;4.40;1.63;;;20.00;40.70;;;;;;5006513;28;20046;-68
2022/03/11 06:15:42;;;;;;;3.33;1.50;;;20.00;40.70;;;;;;5005447;28;20060;-67
2022/03/11 06:18:09;;;;;;;3.20;1.67;;;20.00;40.70;;;;;;5006787;28;20522;-66
2022/03/11 06:20:36;;;;;;;3.28;1.55;;;20.00;40.80;;;;;;5005235;28;20061;-67
2022/03/11 06:23:02;;;;;;;3.42;1.70;;;20.00;40.80;;;;;;5003447;28;20026;-67
2022/03/11 06:25:28;;;;;;;3.67;1.70;;;20.00;40.80;;;;;;5006784;28;20061;-66
2022/03/11 06:27:54;;;;;;;3.30;1.70;;;20.00;40.80;;;;;;5005913;28;20041;-66
2022/03/11 06:30:19;;;;;;;3.90;1.70;;;20.00;40.80;;;;;;5005039;28;20022;-64
2022/03/11 06:32:47;;;;;;;4.10;1.83;;;20.00;40.90;;;;;;5007306;28;20477;-67
2022/03/11 06:35:14;;;;;;;3.03;1.58;;;20.00;40.80;;;;;;5007722;28;20092;-69
2022/03/11 06:37:45;;;;;;;3.42;1.70;;;20.00;40.80;;;;;;5006353;28;20438;-68
2022/03/11 06:40:11;;;;;;;3.47;1.48;;;20.00;40.90;;;;;;5003812;28;20045;-66
2022/03/11 06:42:39;;;;;;;3.95;1.63;;;20.00;40.90;;;;;;5006472;28;20033;-67
2022/03/11 06:45:06;;;;;;;4.28;1.60;;;19.90;40.80;;;;;;5006617;28;20030;-66
2022/03/11 06:47:32;;;;;;;3.60;1.65;;;19.90;40.80;;;;;;5007256;28;20038;-67
2022/03/11 06:49:58;;;;;;;4.38;1.88;;;19.90;40.80;;;;;;5005619;28;20030;-66
2022/03/11 06:52:24;;;;;;;3.50;1.83;;;19.90;40.90;;;;;;5007012;28;20030;-67
2022/03/11 06:54:50;;;;;;;3.50;1.63;;;19.90;40.90;;;;;;5003819;28;20033;-66
2022/03/11 06:57:17;;;;;;;3.15;1.95;;;19.90;40.90;;;;;;5004534;28;20098;-66
2022/03/11 06:59:46;;;;;;;3.85;1.80;;;19.90;40.90;;;;;;5006227;28;20049;-67
2022/03/11 07:02:12;;;;;;;4.25;1.90;;;19.90;40.90;;;;;;5004411;28;20045;-66
2022/03/11 07:04:38;;;;;;;3.58;1.90;;;19.90;40.90;;;;;;5006551;28;20480;-64
2022/03/11 07:07:04;;;;;;;3.33;1.60;;;19.90;40.90;;;;;;5004216;28;20053;-69
2022/03/11 07:09:30;;;;;;;3.88;1.75;;;19.90;40.90;;;;;;5004906;28;20041;-65
2022/03/11 07:11:57;;;;;;;4.03;2.00;;;19.90;40.90;;;;;;5003713;28;20038;-66
2022/03/11 07:14:27;;;;;;;3.15;1.50;;;19.90;40.90;;;;;;5004452;28;20439;-67
2022/03/11 07:16:52;;;;;;;4.80;1.63;;;19.90;40.90;;;;;;5006355;28;20122;-67
2022/03/11 07:19:21;;;;;;;4.78;2.08;;;19.90;40.90;;;;;;5004007;28;20100;-69
2022/03/11 07:21:46;;;;;;;4.13;1.90;;;19.90;40.90;;;;;;5003823;28;20577;-67
2022/03/11 07:24:12;;;;;;;4.45;1.60;;;19.90;40.90;;;;;;5003439;28;20113;-65
2022/03/11 07:26:37;;;;;;;4.32;2.00;;;19.90;40.90;;;;;;5002498;28;20057;-67
2022/03/11 07:29:03;;;;;;;4.00;1.88;;;19.90;40.90;;;;;;5004995;28;20065;-69
2022/03/11 07:31:29;;;;;;;4.47;2.38;;;19.90;40.90;;;;;;5004597;28;20126;-65
2022/03/11 07:33:58;;;;;;;4.35;1.95;;;19.90;40.90;;;;;;5004949;28;20029;-67
2022/03/11 07:36:24;;;;;;;4.15;2.00;;;19.90;40.80;;;;;;5020710;28;20034;-67
2022/03/11 07:38:50;;;;;;;4.15;1.88;;;19.90;40.80;;;;;;5003686;28;20033;-67
2022/03/11 07:41:16;;;;;;;4.32;2.17;;;19.90;40.80;;;;;;5001676;28;20045;-65
2022/03/11 07:43:44;;;;;;;4.70;2.10;;;19.90;40.80;;;;;;5003301;28;20057;-64
2022/03/11 07:46:11;;;;;;;3.70;1.58;;;19.90;40.80;;;;;;5003419;28;20026;-68
2022/03/11 07:48:37;;;;;;;6.82;2.10;;;19.90;40.80;;;;;;5004573;28;20029;-67
2022/03/11 07:51:03;;;;;;;4.72;2.05;;;19.90;40.80;;;;;;5003879;28;20141;-68
2022/03/11 07:53:28;;;;;;;3.72;1.98;;;19.90;40.80;;;;;;5003763;28;20864;-67
2022/03/11 07:55:54;;;;;;;3.90;2.10;;;20.00;40.80;;;;;;5002124;28;20026;-68
2022/03/11 07:58:21;;;;;;;4.88;2.30;;;20.00;41.30;;;;;;5004858;28;20554;-69
2022/03/11 08:00:51;;;;;;;4.32;2.03;;;20.00;40.70;;;;;;5002951;28;20049;-67
2022/03/11 08:03:17;;;;;;;5.45;2.05;;;19.90;40.60;;;;;;5005111;28;20022;-64
2022/03/11 08:05:43;;;;;;;4.40;2.10;;;20.00;40.70;;;;;;4997047;28;20048;-67
2022/03/11 08:08:09;;;;;;;5.22;2.15;;;19.90;40.60;;;;;;5005188;28;20022;-65
2022/03/11 08:10:36;;;;;;;4.70;2.10;;;20.00;40.60;;;;;;5001088;28;20022;-68
2022/03/11 08:13:03;;;;;;;3.58;1.80;;;20.00;40.60;;;;;;5008372;28;20963;-66
2022/03/11 08:15:29;;;;;;;3.83;1.85;;;20.00;40.60;;;;;;5004374;28;20018;-69
2022/03/11 08:17:55;;;;;;;4.82;2.10;;;20.00;40.50;;;;;;5004405;28;20089;-67
2022/03/11 08:20:21;;;;;;;3.53;1.83;;;20.00;40.50;;;;;;5013598;28;20367;-67
2022/03/11 08:22:48;;;;;;;4.35;2.10;;;20.00;40.50;;;;;;5007791;28;20030;-67
2022/03/11 08:25:15;;;;;;;4.10;2.00;;;20.00;40.50;;;;;;5007326;28;20974;-66
2022/03/11 08:27:41;;;;;;;4.18;2.15;;;20.00;40.50;;;;;;5005320;28;20022;-69
2022/03/11 08:30:08;;;;;;;3.78;1.88;;;20.00;40.50;;;;;;5006762;28;20084;-67
2022/03/11 08:32:35;;;;;;;4.53;1.88;;;20.00;40.60;;;;;;5008096;28;20045;-68
2022/03/11 08:35:01;;;;;;;4.35;1.88;;;20.00;40.50;;;;;;5009351;28;20397;-67
2022/03/11 08:37:27;;;;;;;3.95;1.85;;;20.00;40.50;;;;;;5007955;28;20021;-69
2022/03/11 08:39:53;;;;;;;4.10;2.10;;;20.00;40.50;;;;;;5006339;28;20044;-67
2022/03/11 08:42:18;;;;;;;3.33;1.90;;;20.00;40.50;;;;;;5006472;28;20109;-65
2022/03/11 08:44:44;;;;;;;3.55;1.73;;;20.00;40.50;;;;;;5007278;28;20032;-67
2022/03/11 08:47:11;;;;;;;3.65;1.80;;;20.00;40.50;;;;;;5007401;28;20444;-69
2022/03/11 08:49:38;;;;;;;3.28;1.73;;;20.00;40.50;;;;;;5007626;28;20041;-64
2022/03/11 08:52:04;;;;;;;4.20;2.20;;;20.10;40.60;;;;;;5005854;28;20040;-65
2022/03/11 08:54:30;;;;;;;2.92;1.73;;;20.00;40.50;;;;;;5006080;28;20104;-66
2022/03/11 08:56:55;;;;;;;3.47;1.55;;;20.10;40.60;;;;;;5006949;28;20034;-67
2022/03/11 08:59:21;;;;;;;3.55;1.80;;;20.10;40.60;;;;;;5007007;28;20069;-69
2022/03/11 09:01:48;;;;;;;4.53;1.85;;;20.10;40.60;;;;;;5014953;28;20038;-69
2022/03/11 09:04:14;;;;;;;3.13;1.73;;;20.00;40.60;;;;;;5007296;28;20536;-67
2022/03/11 09:06:39;;;;;;;3.95;1.90;;;20.00;40.60;;;;;;5007962;28;20025;-69
2022/03/11 09:09:05;;;;;;;3.38;1.80;;;20.10;40.60;;;;;;5005723;28;20116;-69
2022/03/11 09:11:32;;;;;;;4.18;2.05;;;20.10;40.70;;;;;;5002218;28;20851;-67
2022/03/11 09:13:57;;;;;;;3.15;1.75;;;20.10;40.60;;;;;;5007685;28;20055;-68
2022/03/11 09:16:23;;;;;;;3.90;2.00;;;20.10;40.60;;;;;;5004128;28;20026;-68
2022/03/11 09:18:49;;;;;;;3.60;1.75;;;20.10;40.70;;;;;;5006094;28;20041;-68
2022/03/11 09:21:15;;;;;;;2.67;1.60;;;20.10;40.70;;;;;;5003550;28;20137;-69
2022/03/11 09:23:42;;;;;;;3.10;1.60;;;20.10;40.70;;;;;;5005654;28;20463;-67
2022/03/11 09:26:07;;;;;;;3.85;1.58;;;20.10;40.70;;;;;;5002187;28;20105;-66
2022/03/11 09:28:33;;;;;;;3.63;1.88;;;20.10;40.70;;;;;;5001169;28;20513;-68
2022/03/11 09:31:01;;;;;;;4.03;1.80;;;20.10;40.70;;;;;;5004958;28;20045;-68
2022/03/11 09:33:27;;;;;;;3.50;1.92;;;20.10;40.70;;;;;;5005205;28;20026;-66
2022/03/11 09:35:52;;;;;;;3.13;1.83;;;20.10;40.70;;;;;;5006544;28;20032;-67
2022/03/11 09:38:18;;;;;;;4.32;1.92;;;20.10;40.60;;;;;;5002109;28;20112;-66
2022/03/11 09:40:44;;;;;;;3.47;2.10;;;20.10;40.20;;;;;;5005425;28;20033;-65
2022/03/11 09:43:11;;;;;;;3.65;2.10;;;20.10;39.60;;;;;;5001525;28;20053;-67
2022/03/11 09:45:37;;;;;;;4.10;2.20;;;20.10;39.40;;;;;;5003362;28;20037;-69
2022/03/11 09:48:04;;;;;;;3.90;2.20;;;20.10;39.40;;;;;;5005345;28;20030;-67
2022/03/11 09:50:30;;;;;;;3.50;1.92;;;20.10;39.40;;;;;;5006469;28;20132;-67
2022/03/11 09:52:56;;;;;;;3.47;2.20;;;20.10;39.30;;;;;;5012211;28;20038;-67
2022/03/11 09:55:22;;;;;;;3.30;2.13;;;20.10;39.00;;;;;;5002713;28;20045;-65
2022/03/11 09:57:47;;;;;;;3.45;2.33;;;20.10;38.90;;;;;;5004091;28;20026;-68
2022/03/11 10:00:13;;;;;;;3.72;2.33;;;20.10;38.80;;;;;;5002654;28;20125;-68
2022/03/11 10:02:44;;;;;;;3.20;2.00;;;20.10;38.40;;;;;;5005869;28;20093;-66
2022/03/11 10:05:10;;;;;;;3.33;2.17;;;20.10;38.30;;;;;;5006797;28;20037;-68
2022/03/11 10:07:36;;;;;;;3.83;2.30;;;20.10;38.20;;;;;;5005888;28;20044;-69
2022/03/11 10:10:19;;;;;;;3.33;2.10;;;20.10;38.20;;;;;;5004843;28;20076;-69
2022/03/11 10:12:46;;;;;;;3.55;2.30;;;20.10;38.30;;;;;;5001410;28;20030;-67
2022/03/11 10:15:13;;;;;;;3.28;2.00;;;20.10;38.20;;;;;;5002266;28;20026;-68
2022/03/11 10:17:44;;;;;;;4.30;2.17;;;20.10;37.50;;;;;;5004152;28;20049;-69
2022/03/11 10:20:13;;;;;;;3.20;1.90;;;20.10;37.10;;;;;;5002124;28;20018;-64
2022/03/11 10:22:44;;;;;;;3.10;1.92;;;20.10;37.00;;;;;;5002238;28;20057;-68
2022/03/11 10:25:19;;;;;;;3.72;1.85;;;20.10;37.00;;;;;;5001837;28;20108;-67
2022/03/11 10:28:08;;;;;;;2.80;1.90;;;20.10;37.20;;;;;;5019406;28;20026;-68
2022/03/11 10:30:37;;;;;;;3.03;2.00;;;20.20;37.10;;;;;;5000623;28;20041;-67
2022/03/11 10:33:05;;;;;;;3.08;1.90;;;20.20;37.30;;;;;;5003924;28;20524;-64
2022/03/11 10:35:36;;;;;;;3.00;1.90;;;20.20;37.30;;;;;;5003599;28;20229;-65
2022/03/11 10:38:20;;;;;;;3.03;1.77;;;20.20;37.50;;;;;;5000505;28;20040;-67
2022/03/11 10:40:51;;;;;;;2.60;1.70;;;20.20;37.50;;;;;;4995598;28;20052;-69
2022/03/11 10:43:19;;;;;;;3.15;2.00;;;20.20;37.50;;;;;;4998271;28;20160;-68
2022/03/11 10:45:45;;;;;;;2.67;1.70;;;20.20;37.60;;;;;;4998642;28;20045;-67
2022/03/11 10:48:12;;;;;;;2.88;1.75;;;20.20;37.70;;;;;;5000145;28;20072;-68
2022/03/11 10:50:38;;;;;;;2.70;1.65;;;20.20;37.70;;;;;;5000360;28;20026;-69
2022/03/11 10:53:08;;;;;;;3.42;1.83;;;20.20;37.90;;;;;;4999124;28;21014;-68
2022/03/11 10:55:34;;;;;;;2.65;1.67;;;20.20;37.90;;;;;;4990604;28;20026;-68
2022/03/11 10:58:04;;;;;;;3.08;1.88;;;20.20;38.00;;;;;;4994906;28;20395;-67
2022/03/11 11:00:35;;;;;;;2.45;1.60;;;20.20;38.00;;;;;;5012520;28;20029;-68
2022/03/11 11:03:03;;;;;;;2.65;1.60;;;20.20;38.10;;;;;;4996181;28;20069;-67
2022/03/11 11:05:30;;;;;;;2.60;1.67;;;20.20;38.50;;;;;;5000004;28;20781;-64
2022/03/11 11:07:57;;;;;;;2.38;1.40;;;20.20;39.40;;;;;;4999550;28;20690;-66
2022/03/11 11:10:24;;;;;;;2.50;1.52;;;20.30;39.70;;;;;;4994036;28;20574;-68
2022/03/11 11:12:50;;;;;;;2.90;1.40;;;20.30;39.70;;;;;;4999374;28;20061;-67
2022/03/11 11:15:17;;;;;;;2.17;1.50;;;20.30;40.30;;;;;;5000361;28;20048;-66
2022/03/11 11:17:52;;;;;;;2.53;1.38;;;20.40;39.80;;;;;;4999567;28;20030;-67
2022/03/11 11:20:25;;;;;;;2.63;1.52;;;20.30;39.80;;;;;;4995535;28;20023;-67
2022/03/11 11:22:53;;;;;;;2.90;1.73;;;20.40;39.90;;;;;;4994251;28;20026;-68
2022/03/11 11:25:21;;;;;;;2.88;1.77;;;20.40;40.00;;;;;;4995951;28;20530;-68
2022/03/11 11:27:47;;;;;;;2.40;1.60;;;20.50;40.00;;;;;;4996184;28;20029;-65
2022/03/11 11:30:18;;;;;;;2.13;1.35;;;20.50;39.90;;;;;;4996949;28;20084;-68
2022/03/11 11:32:45;;;;;;;2.47;1.58;;;20.50;40.00;;;;;;4997665;28;20018;-68
2022/03/11 11:35:29;;;;;;;2.17;1.48;;;20.50;39.90;;;;;;4999992;28;20038;-65
2022/03/11 11:37:57;;;;;;;2.40;1.40;;;20.60;39.90;;;;;;4998868;28;20026;-67
2022/03/11 11:40:26;;;;;;;2.17;1.50;;;20.60;39.90;;;;;;5000769;28;20034;-66
2022/03/11 11:43:13;;;;;;;2.50;1.50;;;20.70;39.80;;;;;;5000494;28;20120;-67
2022/03/11 11:45:53;;;;;;;2.30;1.40;;;20.70;39.80;;;;;;5000902;28;20030;-65
2022/03/11 11:48:43;;;;;;;2.28;1.30;;;20.70;39.80;;;;;;5002863;28;20070;-67
2022/03/11 11:51:11;;;;;;;2.08;1.48;;;20.70;39.80;;;;;;5005637;28;20026;-65
2022/03/11 11:53:53;;;;;;;2.33;1.35;;;20.80;39.80;;;;;;5001423;28;20026;-67
2022/03/11 11:56:32;;;;;;;2.53;1.52;;;20.80;39.70;;;;;;5003370;28;20149;-67
2022/03/11 11:59:08;;;;;;;2.20;1.40;;;20.80;39.70;;;;;;5008887;28;20045;-65
2022/03/11 12:01:45;;;;;;;1.90;1.23;;;20.80;39.80;;;;;;5012404;28;20038;-65
2022/03/11 12:04:32;;;;;;;2.80;1.67;;;20.80;39.80;;;;;;5006899;28;20060;-67
2022/03/11 12:07:06;;;;;;;2.55;1.80;;;20.90;39.70;;;;;;5005764;28;20121;-68
2022/03/11 12:10:01;;;;;;;2.20;1.35;;;20.90;39.70;;;;;;5006051;28;20032;-67
2022/03/11 12:15:01;;;;;;;3.33;1.65;;;20.90;39.50;;;;;;5011000;28;20156;-69
2022/03/11 12:17:36;;;;;;;2.38;1.45;;;20.90;39.30;;;;;;5007495;28;20041;-68
2022/03/11 12:20:39;;;;;;;2.55;1.40;;;21.00;39.40;;;;;;5009645;28;20029;-67
2022/03/11 12:23:06;;;;;;;3.10;1.52;;;21.10;39.40;;;;;;5002082;28;20738;-67
2022/03/11 12:25:48;;;;;;;2.70;1.50;;;21.10;39.40;;;;;;5000552;28;20033;-68
2022/03/11 12:28:27;;;;;;;1.83;1.20;;;21.10;39.40;;;;;;4999793;28;20034;-67
2022/03/11 12:30:54;;;;;;;2.08;1.38;;;21.10;39.30;;;;;;4998693;28;20029;-66
2022/03/11 12:33:30;;;;;;;2.60;1.50;;;21.10;39.20;;;;;;5000751;28;20048;-65
2022/03/11 12:35:57;;;;;;;2.05;1.25;;;21.10;39.20;;;;;;4999488;28;20049;-67
2022/03/11 12:38:25;;;;;;;3.05;1.60;;;21.10;39.20;;;;;;4995159;28;20026;-66
2022/03/11 12:40:52;;;;;;;3.03;1.40;;;21.10;39.20;;;;;;5003009;28;20030;-67
2022/03/11 12:43:21;;;;;;;2.38;1.35;;;21.10;39.20;;;;;;5001185;28;20371;-68
2022/03/11 12:45:54;;;;;;;2.63;1.40;;;21.10;39.20;;;;;;5000294;28;20555;-68
2022/03/11 12:48:23;;;;;;;1.70;1.20;;;21.10;39.20;;;;;;4999113;28;20162;-67
2022/03/11 12:50:49;;;;;;;2.28;1.33;;;21.10;39.20;;;;;;5002607;28;20092;-65
2022/03/11 12:53:16;;;;;;;2.47;1.40;;;21.10;39.20;;;;;;5000067;28;20132;-67